createdAt,value
2019-04-26T00:00:45.950Z,100282.67
2019-04-26T00:03:53.320Z,100283.62
2019-04-26T00:07:01.005Z,100282.80
2019-04-26T00:10:36.289Z,100277.86
2019-04-26T00:14:08.735Z,100279.27
2019-04-26T00:17:23.176Z,100271.33
2019-04-26T00:20:44.477Z,100265.10
2019-04-26T00:24:01.285Z,100267.02
2019-04-26T00:27:18.988Z,100270.61
2019-04-26T00:30:26.436Z,100272.98
2019-04-26T00:33:33.753Z,100269.09
2019-04-26T00:36:40.985Z,100262.61
2019-04-26T00:39:48.216Z,100260.24
2019-04-26T00:42:57.570Z,100260.24
2019-04-26T00:46:04.823Z,100253.73
2019-04-26T00:49:21.538Z,100250.03
2019-04-26T00:52:39.484Z,100241.08
2019-04-26T00:55:47.923Z,100231.73
2019-04-26T00:58:55.591Z,100233.37
2019-04-26T01:02:18.576Z,100230.53
2019-04-26T01:05:26.355Z,100228.89
2019-04-26T01:08:43.266Z,100227.02
2019-04-26T01:12:00.122Z,100232.33
2019-04-26T01:15:19.612Z,100231.39
2019-04-26T01:18:35.766Z,100229.49
2019-04-26T01:21:56.132Z,100234.01
2019-04-26T01:25:04.667Z,100242.05
2019-04-26T01:28:32.095Z,100271.78
2019-04-26T01:31:45.632Z,100299.92
2019-04-26T01:34:54.283Z,100296.38
2019-04-26T01:38:02.316Z,100284.48
2019-04-26T01:41:14.574Z,100248.28
2019-04-26T01:44:41.629Z,100259.86
2019-04-26T01:47:51.701Z,100276.80
2019-04-26T01:50:59.839Z,100289.49
2019-04-26T01:54:07.152Z,100278.41
2019-04-26T01:57:14.915Z,100267.37
2019-04-26T02:00:49.265Z,100225.71
2019-04-26T02:03:56.581Z,100227.63
2019-04-26T02:07:04.991Z,100227.25
2019-04-26T02:10:13.998Z,100235.33
2019-04-26T02:13:22.529Z,100249.33
2019-04-26T02:16:40.691Z,100250.03
2019-04-26T02:19:57.344Z,100249.18
2019-04-26T02:23:14.946Z,100243.22
2019-04-26T02:26:32.629Z,100234.75
2019-04-26T02:30:33.143Z,100232.52
2019-04-26T02:33:49.915Z,100233.32
2019-04-26T02:37:08.561Z,100232.78
2019-04-26T02:40:17.482Z,100229.55
2019-04-26T02:43:35.413Z,100217.89
2019-04-26T02:47:28.935Z,100215.09
2019-04-26T02:51:00.810Z,100203.56
2019-04-26T02:54:20.631Z,100214.06
2019-04-26T02:57:39.994Z,100238.31
2019-04-26T03:00:47.272Z,100232.45
2019-04-26T03:04:04.153Z,100221.09
2019-04-26T03:07:40.017Z,100206.34
2019-04-26T03:10:55.063Z,100221.41
2019-04-26T03:14:21.452Z,100230.23
2019-04-26T03:17:43.075Z,100225.23
2019-04-26T03:20:55.898Z,100223.11
2019-04-26T03:24:13.079Z,100237.79
2019-04-26T03:27:49.548Z,100241.33
2019-04-26T03:31:10.547Z,100222.25
2019-04-26T03:34:26.953Z,100225.20
2019-04-26T03:38:17.117Z,100226.47
2019-04-26T03:42:10.463Z,100216.52
2019-04-26T03:45:24.838Z,100217.31
2019-04-26T03:49:02.772Z,100225.84
2019-04-26T03:52:39.671Z,100235.87
2019-04-26T03:56:29.286Z,100248.25
2019-04-26T04:00:05.194Z,100237.76
2019-04-26T04:03:41.656Z,100234.30
2019-04-26T04:06:58.109Z,100222.27
2019-04-26T04:10:04.765Z,100220.24
2019-04-26T04:13:42.718Z,100201.48
2019-04-26T04:17:13.101Z,100206.98
2019-04-26T04:21:00.503Z,100209.80
2019-04-26T04:24:41.645Z,100210.54
2019-04-26T04:28:40.427Z,100202.06
2019-04-26T04:31:52.414Z,100195.45
2019-04-26T04:35:06.295Z,100186.19
2019-04-26T04:38:31.888Z,100191.42
2019-04-26T04:42:24.785Z,100185.98
2019-04-26T04:46:13.207Z,100183.45
2019-04-26T04:49:54.575Z,100177.42
2019-04-26T04:53:33.133Z,100175.19
2019-04-26T04:56:45.781Z,100182.66
2019-04-26T05:00:11.797Z,100197.03
2019-04-26T05:03:39.046Z,100197.13
2019-04-26T05:07:16.489Z,100197.56
2019-04-26T05:10:44.214Z,100206.37
2019-04-26T05:13:59.739Z,100208.22
2019-04-26T05:17:36.927Z,100216.61
2019-04-26T05:21:08.757Z,100214.59
2019-04-26T05:24:28.290Z,100213.47
2019-04-26T05:28:06.089Z,100221.55
2019-04-26T05:31:37.638Z,100235.10
2019-04-26T05:35:07.899Z,100229.77
2019-04-26T05:39:06.658Z,100225.29
2019-04-26T05:43:14.182Z,100227.80
2019-04-26T05:47:05.191Z,100215.97
2019-04-26T05:51:08.425Z,100216.41
2019-04-26T05:55:11.984Z,100220.17
2019-04-26T05:58:27.938Z,100215.97
2019-04-26T06:02:01.926Z,100208.11
2019-04-26T06:05:47.288Z,100210.59
2019-04-26T06:10:05.432Z,100212.84
2019-04-26T06:14:01.999Z,100217.47
2019-04-26T06:17:51.622Z,100223.74
2019-04-26T06:21:38.957Z,100244.19
2019-04-26T06:25:09.238Z,100238.66
2019-04-26T06:28:50.136Z,100233.77
2019-04-26T06:32:28.620Z,100244.22
2019-04-26T06:35:49.422Z,100240.34
2019-04-26T06:39:32.163Z,100227.78
2019-04-26T06:43:19.882Z,100236.81
2019-04-26T06:47:04.070Z,100231.66
2019-04-26T06:50:24.138Z,100238.28
2019-04-26T06:54:21.427Z,100252.73
2019-04-26T06:58:18.477Z,100256.98
2019-04-26T07:02:35.253Z,100246.55
2019-04-26T07:05:44.770Z,100241.70
2019-04-26T07:09:11.514Z,100232.40
2019-04-26T07:12:37.547Z,100250.30
2019-04-26T07:16:17.775Z,100261.98
2019-04-26T07:20:28.245Z,100279.86
2019-04-26T07:24:20.060Z,100284.70
2019-04-26T07:28:03.841Z,100292.94
2019-04-26T07:31:11.479Z,100289.04
2019-04-26T07:34:40.162Z,100284.45
2019-04-26T07:38:16.456Z,100274.22
2019-04-26T07:42:23.133Z,100284.11
2019-04-26T07:46:02.872Z,100279.73
2019-04-26T07:49:56.474Z,100285.63
2019-04-26T07:53:28.235Z,100277.74
2019-04-26T07:57:39.812Z,100275.27
2019-04-26T08:00:53.761Z,100285.59
2019-04-26T08:04:07.299Z,100290.17
2019-04-26T08:07:20.489Z,100290.75
2019-04-26T08:10:39.274Z,100284.23
2019-04-26T08:14:12.965Z,100279.75
2019-04-26T08:17:31.931Z,100279.52
2019-04-26T08:20:52.644Z,100297.42
2019-04-26T08:24:08.454Z,100293.56
2019-04-26T08:27:27.837Z,100296.84
2019-04-26T08:30:46.902Z,100278.70
2019-04-26T08:33:59.490Z,100287.75
2019-04-26T08:37:19.010Z,100299.66
2019-04-26T08:40:31.090Z,100312.16
2019-04-26T08:44:03.504Z,100323.70
2019-04-26T08:47:28.843Z,100306.62
2019-04-26T08:50:47.014Z,100320.50
2019-04-26T08:53:55.179Z,100296.30
2019-04-26T08:57:20.925Z,100301.48
2019-04-26T09:00:44.938Z,100300.18
2019-04-26T09:04:02.945Z,100299.45
2019-04-26T09:07:30.325Z,100295.69
2019-04-26T09:10:48.636Z,100299.45
2019-04-26T09:14:06.481Z,100304.16
2019-04-26T09:17:13.898Z,100311.73
2019-04-26T09:20:28.748Z,100323.60
2019-04-26T09:23:51.853Z,100320.24
2019-04-26T09:27:21.124Z,100332.18
2019-04-26T09:30:34.143Z,100337.92
2019-04-26T09:33:45.743Z,100335.67
2019-04-26T09:36:53.002Z,100341.90
2019-04-26T09:40:10.056Z,100350.98
2019-04-26T09:43:17.792Z,100351.80
2019-04-26T09:46:52.924Z,100368.44
2019-04-26T09:50:34.834Z,100367.67
2019-04-26T09:53:53.594Z,100370.19
2019-04-26T09:57:00.927Z,100382.97
2019-04-26T10:00:24.210Z,100360.77
2019-04-26T10:03:41.076Z,100367.42
2019-04-26T10:06:46.751Z,100375.78
2019-04-26T10:09:56.465Z,100381.26
2019-04-26T10:13:38.706Z,100399.84
2019-04-26T10:17:07.634Z,100411.22
2019-04-26T10:20:15.026Z,100426.63
2019-04-26T10:23:22.169Z,100435.11
2019-04-26T10:26:29.884Z,100428.17
2019-04-26T10:29:37.289Z,100424.13
2019-04-26T10:32:44.811Z,100430.35
2019-04-26T10:36:01.382Z,100427.11
2019-04-26T10:39:10.554Z,100433.25
2019-04-26T10:42:27.196Z,100419.53
2019-04-26T10:45:34.537Z,100439.36
2019-04-26T10:48:45.510Z,100447.09
2019-04-26T10:52:00.263Z,100456.22
2019-04-26T10:55:55.921Z,100460.83
2019-04-26T11:02:14.996Z,100465.73
2019-04-26T11:05:22.430Z,100462.52
2019-04-26T11:08:30.241Z,100471.83
2019-04-26T11:11:46.772Z,100481.05
2019-04-26T11:14:56.914Z,100492.12
2019-04-26T11:18:13.201Z,100491.26
2019-04-26T11:21:22.300Z,100497.16
2019-04-26T11:24:38.791Z,100497.40
2019-04-26T11:27:55.580Z,100498.32
2019-04-26T11:31:12.827Z,100510.77
2019-04-26T11:34:29.385Z,100507.72
2019-04-26T11:37:36.183Z,100502.45
2019-04-26T11:40:44.309Z,100524.48
2019-04-26T11:44:02.094Z,100521.80
2019-04-26T11:47:18.980Z,100519.55
2019-04-26T11:50:35.861Z,100508.53
2019-04-26T11:53:52.565Z,100500.12
2019-04-26T11:57:12.084Z,100494.48
2019-04-26T12:00:35.782Z,100483.56
2019-04-26T12:04:49.536Z,100492.36
2019-04-26T12:08:04.166Z,100505.88
2019-04-26T12:11:34.326Z,100502.95
2019-04-26T12:14:44.656Z,100494.91
2019-04-26T12:17:58.399Z,100499.73
2019-04-26T12:21:02.048Z,100497.52
2019-04-26T12:24:09.449Z,100495.77
2019-04-26T12:27:16.794Z,100491.67
2019-04-26T12:30:26.730Z,100492.95
2019-04-26T12:33:33.266Z,100482.23
2019-04-26T12:36:40.517Z,100493.77
2019-04-26T12:39:47.883Z,100487.27
2019-04-26T12:42:55.121Z,100488.13
2019-04-26T12:46:22.773Z,100499.92
2019-04-26T12:49:45.385Z,100508.39
2019-04-26T12:52:55.567Z,100500.59
2019-04-26T12:56:01.498Z,100513.34
2019-04-26T12:59:18.310Z,100497.78
2019-04-26T13:02:35.093Z,100484.92
2019-04-26T13:05:42.415Z,100483.16
2019-04-26T13:08:59.131Z,100494.83
2019-04-26T13:12:21.423Z,100507.47
2019-04-26T13:16:09.330Z,100517.00
2019-04-26T13:19:19.851Z,100526.22
2019-04-26T13:22:45.322Z,100525.09
2019-04-26T13:25:55.438Z,100524.42
2019-04-26T13:29:12.113Z,100526.65
2019-04-26T13:32:18.297Z,100526.62
2019-04-26T13:35:25.554Z,100524.75
2019-04-26T13:38:33.234Z,100516.42
2019-04-26T13:41:40.726Z,100521.13
2019-04-26T13:45:16.637Z,100515.53
2019-04-26T13:48:43.615Z,100511.18
2019-04-26T13:51:51.892Z,100517.92
2019-04-26T13:54:59.222Z,100519.89
2019-04-26T13:58:06.543Z,100530.62
2019-04-26T14:01:14.701Z,100531.78
2019-04-26T14:04:32.384Z,100541.45
2019-04-26T14:07:39.573Z,100551.94
2019-04-26T14:10:49.904Z,100549.80
2019-04-26T14:14:05.302Z,100537.91
2019-04-26T14:17:21.925Z,100550.13
2019-04-26T14:20:38.703Z,100548.66
2019-04-26T14:24:05.106Z,100557.43
2019-04-26T14:27:34.861Z,100557.11
2019-04-26T14:30:54.209Z,100561.31
2019-04-26T14:34:12.120Z,100558.17
2019-04-26T14:37:19.457Z,100558.45
2019-04-26T14:40:26.830Z,100548.91
2019-04-26T14:43:43.664Z,100542.66
2019-04-26T14:47:13.210Z,100569.57
2019-04-26T14:50:18.783Z,100575.16
2019-04-26T14:53:26.140Z,100577.20
2019-04-26T14:56:52.352Z,100564.09
2019-04-26T15:00:00.201Z,100572.41
2019-04-26T15:03:29.114Z,100577.73
2019-04-26T15:06:37.592Z,100572.95
2019-04-26T15:09:45.615Z,100577.76
2019-04-26T15:13:05.725Z,100586.86
2019-04-26T15:16:03.952Z,100584.32
2019-04-26T15:19:20.347Z,100573.41
2019-04-26T15:22:37.044Z,100580.70
2019-04-26T15:25:53.839Z,100596.48
2019-04-26T15:29:02.489Z,100601.45
2019-04-26T15:32:19.456Z,100609.45
2019-04-26T15:35:36.196Z,100609.16
2019-04-26T15:38:45.088Z,100605.88
2019-04-26T15:42:29.291Z,100607.25
2019-04-26T15:45:52.584Z,100616.74
2019-04-26T15:49:42.938Z,100619.77
2019-04-26T15:52:52.450Z,100624.23
2019-04-26T15:55:59.612Z,100642.58
2019-04-26T15:59:06.843Z,100662.89
2019-04-26T16:02:14.161Z,100654.55
2019-04-26T16:05:27.352Z,100667.33
2019-04-26T16:08:42.913Z,100656.52
2019-04-26T16:11:58.212Z,100650.03
2019-04-26T16:15:06.619Z,100648.16
2019-04-26T16:18:17.524Z,100648.45
2019-04-26T16:21:23.853Z,100637.64
2019-04-26T16:24:34.187Z,100639.72
2019-04-26T16:27:40.287Z,100646.69
2019-04-26T16:31:02.551Z,100640.01
2019-04-26T16:34:27.118Z,100654.16
2019-04-26T16:37:50.017Z,100669.23
2019-04-26T16:41:14.626Z,100675.36
2019-04-26T16:44:33.358Z,100672.42
2019-04-26T16:47:49.723Z,100678.16
2019-04-26T16:51:01.198Z,100672.06
2019-04-26T16:54:10.223Z,100681.48
2019-04-26T16:57:13.784Z,100685.89
2019-04-26T17:00:31.844Z,100686.99
2019-04-26T17:03:29.978Z,100686.30
2019-04-26T17:06:44.303Z,100682.03
2019-04-26T17:10:03.126Z,100669.79
2019-04-26T17:12:55.434Z,100683.77
2019-04-26T17:16:12.832Z,100704.25
2019-04-26T17:19:20.250Z,100711.63
2019-04-26T17:22:44.385Z,100701.86
2019-04-26T17:26:42.890Z,100714.98
2019-04-26T17:29:50.234Z,100701.71
2019-04-26T17:32:57.586Z,100713.92
2019-04-26T17:36:04.918Z,100713.09
2019-04-26T17:39:16.810Z,100718.06
2019-04-26T17:42:21.058Z,100717.42
2019-04-26T17:45:28.402Z,100709.68
2019-04-26T17:48:35.729Z,100707.67
2019-04-26T17:51:57.870Z,100711.52
2019-04-26T17:55:13.997Z,100713.11
2019-04-26T17:58:27.517Z,100723.88
2019-04-26T18:01:44.401Z,100729.22
2019-04-26T18:04:40.815Z,100709.95
2019-04-26T18:07:56.572Z,100705.36
2019-04-26T18:10:56.398Z,100705.06
2019-04-26T18:14:03.735Z,100704.80
2019-04-26T18:17:52.045Z,100694.56
2019-04-26T18:21:29.853Z,100701.58
2019-04-26T18:24:37.093Z,100729.43
2019-04-26T18:27:44.418Z,100729.80
2019-04-26T18:31:01.361Z,100727.87
2019-04-26T18:34:07.022Z,100735.97
2019-04-26T18:37:14.157Z,100739.19
2019-04-26T18:40:38.991Z,100735.36
2019-04-26T18:43:49.317Z,100736.24
2019-04-26T18:47:02.792Z,100740.14
2019-04-26T18:50:10.529Z,100748.06
2019-04-26T18:53:44.851Z,100742.38
2019-04-26T18:57:17.134Z,100747.81
2019-04-26T19:00:36.628Z,100765.73
2019-04-26T19:03:43.891Z,100772.13
2019-04-26T19:07:00.684Z,100774.52
2019-04-26T19:10:17.516Z,100776.50
2019-04-26T19:13:36.721Z,100778.25
2019-04-26T19:17:05.947Z,100788.97
2019-04-26T19:20:22.873Z,100785.43
2019-04-26T19:23:30.578Z,100781.61
2019-04-26T19:26:39.219Z,100771.41
2019-04-26T19:29:46.467Z,100763.67
2019-04-26T19:32:53.965Z,100752.21
2019-04-26T19:36:01.116Z,100761.41
2019-04-26T19:39:08.634Z,100775.39
2019-04-26T19:42:15.944Z,100782.05
2019-04-26T19:45:47.237Z,100770.38
2019-04-26T19:49:30.032Z,100760.86
2019-04-26T19:52:55.786Z,100769.34
2019-04-26T19:56:31.486Z,100792.27
2019-04-26T19:59:38.920Z,100807.41
2019-04-26T20:02:55.646Z,100812.21
2019-04-26T20:06:18.659Z,100811.47
2019-04-26T20:09:31.924Z,100809.18
2019-04-26T20:12:39.443Z,100802.59
2019-04-26T20:15:46.787Z,100798.33
2019-04-26T20:19:08.070Z,100803.61
2019-04-26T20:22:13.674Z,100809.72
2019-04-26T20:25:22.390Z,100804.71
2019-04-26T20:28:29.701Z,100803.25
2019-04-26T20:31:54.730Z,100804.38
2019-04-26T20:35:13.397Z,100798.39
2019-04-26T20:38:35.756Z,100804.19
2019-04-26T20:42:00.536Z,100811.20
2019-04-26T20:45:11.298Z,100818.95
2019-04-26T20:48:30.108Z,100824.06
2019-04-26T20:51:51.963Z,100815.87
2019-04-26T20:55:09.378Z,100820.33
2019-04-26T20:58:26.083Z,100829.27
2019-04-26T21:01:33.410Z,100842.31
2019-04-26T21:04:51.476Z,100837.91
2019-04-26T21:07:58.947Z,100835.56
2019-04-26T21:11:15.785Z,100839.08
2019-04-26T21:14:32.561Z,100842.38
2019-04-26T21:17:49.301Z,100849.85
2019-04-26T21:21:10.543Z,100858.19
2019-04-26T21:24:26.532Z,100869.80
2019-04-26T21:28:08.126Z,100882.58
2019-04-26T21:31:36.359Z,100899.65
2019-04-26T21:34:46.436Z,100924.67
2019-04-26T21:37:58.552Z,100938.45
2019-04-26T21:41:11.684Z,100930.45
2019-04-26T21:44:19.705Z,100920.57
2019-04-26T21:47:27.593Z,100914.47
2019-04-26T21:50:38.911Z,100891.89
2019-04-26T21:53:45.352Z,100876.23
2019-04-26T21:57:01.730Z,100862.25
2019-04-26T22:00:37.027Z,100859.50
2019-04-26T22:03:47.315Z,100857.12
2019-04-26T22:07:05.224Z,100864.36
2019-04-26T22:10:26.942Z,100858.84
2019-04-26T22:13:54.634Z,100857.11
2019-04-26T22:17:36.310Z,100840.66
2019-04-26T22:20:51.211Z,100837.89
2019-04-26T22:24:06.441Z,100844.75
2019-04-26T22:27:17.391Z,100870.44
2019-04-26T22:30:28.286Z,100881.01
2019-04-26T22:33:36.115Z,100881.93
2019-04-26T22:36:43.890Z,100888.48
2019-04-26T22:39:51.180Z,100890.77
2019-04-26T22:43:16.324Z,100885.62
2019-04-26T22:46:48.851Z,100869.89
2019-04-26T22:49:53.606Z,100870.72
2019-04-26T22:53:00.928Z,100867.55
2019-04-26T22:56:08.190Z,100860.89
2019-04-26T22:59:15.337Z,100863.98
2019-04-26T23:02:27.507Z,100869.14
2019-04-26T23:05:37.333Z,100868.61
2019-04-26T23:08:56.826Z,100829.70
2019-04-26T23:12:47.745Z,100824.38
2019-04-26T23:16:14.430Z,100849.75
2019-04-26T23:19:27.198Z,100868.31
2019-04-26T23:22:52.935Z,100862.55
2019-04-26T23:26:02.303Z,100873.98
2019-04-26T23:29:15.702Z,100867.32
2019-04-26T23:32:27.554Z,100854.24
2019-04-26T23:35:37.515Z,100860.52
2019-04-26T23:38:53.337Z,100846.22
2019-04-26T23:42:12.254Z,100824.94
2019-04-26T23:45:28.905Z,100817.69
2019-04-26T23:48:48.668Z,100809.29
2019-04-26T23:52:04.061Z,100804.69
2019-04-26T23:55:13.360Z,100806.65
2019-04-26T23:58:20.803Z,100814.73
